Time;durP1;ratioP1;P1;durP2;ratioP2;P2;SDS_P1;SDS_P2;PMS_P1;PMS_P2;Temp;Humidity;BMP_temperature;BMP_pressure;BME280_temperature;BME280_humidity;BME280_pressure;Samples;Min_cycle;Max_cycle;Signal;HPM_P1;HPM_P2
2023/06/23 00:01:46;;;;;;;1.27;0.95;;;19.60;99.90;;;;;;4405247;32;20062;-78
2023/06/23 00:04:11;;;;;;;0.40;0.40;;;19.70;99.90;;;;;;4404029;32;20559;-78
2023/06/23 00:06:37;;;;;;;0.47;0.47;;;19.70;99.90;;;;;;4403646;32;20614;-78
2023/06/23 00:09:13;;;;;;;0.85;0.50;;;19.60;99.90;;;;;;4408602;32;20113;-78
2023/06/23 00:11:40;;;;;;;2.30;0.80;;;19.50;99.90;;;;;;4407224;32;20157;-78
2023/06/23 00:14:06;;;;;;;0.52;0.52;;;19.50;99.90;;;;;;4403353;32;20071;-75
2023/06/23 00:16:37;;;;;;;0.30;0.30;;;19.40;99.90;;;;;;4403011;32;20091;-77
2023/06/23 00:19:03;;;;;;;0.43;0.43;;;19.40;99.90;;;;;;4405142;32;20094;-76
2023/06/23 00:21:29;;;;;;;0.65;0.62;;;19.30;99.90;;;;;;4404673;32;20061;-77
2023/06/23 00:23:55;;;;;;;0.47;0.47;;;19.30;99.90;;;;;;4404053;32;20118;-77
2023/06/23 00:26:23;;;;;;;0.40;0.40;;;19.40;99.90;;;;;;4404142;32;20070;-78
2023/06/23 00:29:05;;;;;;;0.45;0.45;;;19.30;99.90;;;;;;4391809;32;20085;-78
2023/06/23 00:31:30;;;;;;;0.35;0.35;;;19.30;99.90;;;;;;4405941;32;20074;-78
2023/06/23 00:34:02;;;;;;;1.90;0.52;;;19.30;99.90;;;;;;4409582;32;20066;-78
2023/06/23 00:36:30;;;;;;;1.50;0.90;;;19.40;99.90;;;;;;4406758;32;20062;-78
2023/06/23 00:38:56;;;;;;;0.50;0.50;;;19.40;99.90;;;;;;4408085;32;20534;-78
2023/06/23 00:41:28;;;;;;;0.52;0.52;;;19.40;99.90;;;;;;4408579;32;20069;-78
2023/06/23 00:43:59;;;;;;;1.15;0.80;;;19.50;99.90;;;;;;4408437;32;20062;-78
2023/06/23 00:46:25;;;;;;;5.45;0.57;;;19.60;99.90;;;;;;4405799;32;20090;-77
2023/06/23 00:48:52;;;;;;;2.58;0.70;;;19.70;99.90;;;;;;4407474;32;20078;-78
2023/06/23 00:51:19;;;;;;;0.40;0.40;;;19.70;99.90;;;;;;4407749;32;20600;-78
2023/06/23 00:53:47;;;;;;;0.40;0.40;;;19.50;99.90;;;;;;4408409;32;20063;-78
2023/06/23 00:56:16;;;;;;;0.50;0.50;;;19.40;99.90;;;;;;4407596;32;20081;-78
2023/06/23 00:58:42;;;;;;;1.35;0.50;;;19.30;99.90;;;;;;4408126;32;20062;-78
2023/06/23 01:01:10;;;;;;;0.50;0.50;;;19.30;99.90;;;;;;4407965;32;20200;-76
2023/06/23 01:03:37;;;;;;;0.57;0.57;;;19.20;99.90;;;;;;4401112;32;20145;-78
2023/06/23 01:06:13;;;;;;;2.10;0.95;;;19.20;99.90;;;;;;4404892;32;20126;-77
2023/06/23 01:08:59;;;;;;;1.48;0.52;;;19.20;99.90;;;;;;4406935;32;20596;-78
2023/06/23 01:11:43;;;;;;;1.17;0.50;;;19.20;99.90;;;;;;4405206;32;20082;-77
2023/06/23 01:14:21;;;;;;;1.02;0.50;;;19.10;99.90;;;;;;4407739;32;20157;-77
2023/06/23 01:16:54;;;;;;;1.30;0.68;;;19.20;99.90;;;;;;4406538;32;20066;-77
2023/06/23 01:19:48;;;;;;;1.17;0.93;;;19.20;99.90;;;;;;4407627;32;20082;-77
2023/06/23 01:22:41;;;;;;;0.55;0.55;;;19.20;99.90;;;;;;4395018;32;20077;-76
2023/06/23 01:25:17;;;;;;;0.37;0.37;;;19.30;99.90;;;;;;4397154;32;20066;-77
2023/06/23 01:28:02;;;;;;;0.40;0.40;;;19.30;99.90;;;;;;4408466;32;20573;-78
2023/06/23 01:30:31;;;;;;;0.52;0.52;;;19.30;99.90;;;;;;4407233;32;20086;-77
2023/06/23 01:33:09;;;;;;;0.40;0.40;;;19.40;99.90;;;;;;4410345;32;20082;-77
2023/06/23 01:35:42;;;;;;;0.85;0.45;;;19.40;99.90;;;;;;4406617;32;20098;-77
2023/06/23 01:38:22;;;;;;;1.83;0.70;;;19.30;99.90;;;;;;4407139;32;20078;-78
2023/06/23 01:40:54;;;;;;;10.80;0.77;;;19.20;99.90;;;;;;4407021;32;20061;-78
2023/06/23 01:43:29;;;;;;;0.52;0.40;;;19.20;99.90;;;;;;4405597;32;20713;-78
2023/06/23 01:46:04;;;;;;;0.40;0.40;;;19.20;99.90;;;;;;4407007;32;20093;-77
2023/06/23 01:48:34;;;;;;;0.52;0.52;;;19.10;99.90;;;;;;4406335;32;20058;-78
2023/06/23 01:51:02;;;;;;;0.50;0.50;;;19.10;99.90;;;;;;4406879;32;20058;-78
2023/06/23 01:53:30;;;;;;;0.40;0.40;;;19.00;99.90;;;;;;4407921;32;20062;-78
2023/06/23 01:55:57;;;;;;;7.37;0.55;;;19.00;99.90;;;;;;4407677;32;20073;-78
2023/06/23 01:58:24;;;;;;;0.52;0.43;;;19.00;99.90;;;;;;4407495;32;20468;-77
2023/06/23 02:00:52;;;;;;;0.35;0.35;;;19.00;99.90;;;;;;4403915;32;20098;-76
2023/06/23 02:03:19;;;;;;;0.55;0.55;;;19.10;99.90;;;;;;4406503;32;20523;-77
2023/06/23 02:05:47;;;;;;;0.82;0.50;;;19.10;99.90;;;;;;4407371;32;20077;-77
2023/06/23 02:08:15;;;;;;;0.32;0.32;;;19.20;99.90;;;;;;4405535;32;20082;-77
2023/06/23 02:10:41;;;;;;;0.45;0.45;;;19.10;99.90;;;;;;4405976;32;20089;-77
2023/06/23 02:13:11;;;;;;;0.40;0.40;;;19.20;99.90;;;;;;4408825;32;20081;-77
2023/06/23 02:15:38;;;;;;;1.92;0.70;;;19.20;99.90;;;;;;4405856;32;20070;-77
2023/06/23 02:18:08;;;;;;;0.40;0.40;;;19.20;99.90;;;;;;4405665;32;20074;-77
2023/06/23 02:20:35;;;;;;;0.25;0.25;;;19.20;99.90;;;;;;4405850;32;20106;-78
2023/06/23 02:23:02;;;;;;;1.08;0.98;;;19.20;99.90;;;;;;4405323;32;20124;-77
2023/06/23 02:25:31;;;;;;;0.62;0.57;;;19.20;99.90;;;;;;4405737;32;20142;-77
2023/06/23 02:28:03;;;;;;;0.50;0.50;;;19.20;99.90;;;;;;4407492;32;20057;-77
2023/06/23 02:30:29;;;;;;;0.47;0.32;;;19.00;99.90;;;;;;4407506;32;20079;-76
2023/06/23 02:32:56;;;;;;;1.30;0.80;;;18.90;99.90;;;;;;4403233;32;20078;-77
2023/06/23 02:35:22;;;;;;;0.40;0.40;;;18.90;99.90;;;;;;4404935;32;20067;-78
2023/06/23 02:37:58;;;;;;;0.40;0.40;;;19.00;99.90;;;;;;4405563;32;20090;-77
2023/06/23 02:40:26;;;;;;;0.75;0.47;;;19.00;99.90;;;;;;4405359;32;20159;-76
2023/06/23 02:43:04;;;;;;;0.30;0.30;;;19.10;99.90;;;;;;4404597;32;20062;-76
2023/06/23 02:45:36;;;;;;;0.43;0.43;;;19.20;99.90;;;;;;4405069;32;20070;-76
2023/06/23 02:48:07;;;;;;;0.80;0.80;;;19.20;99.90;;;;;;4404183;32;20058;-77
2023/06/23 02:50:35;;;;;;;0.30;0.30;;;19.20;99.90;;;;;;4404282;32;20070;-77
2023/06/23 02:53:10;;;;;;;0.50;0.50;;;19.10;99.90;;;;;;4409751;32;20132;-76
2023/06/23 02:55:40;;;;;;;1.40;0.77;;;19.10;99.90;;;;;;4405018;32;20465;-77
2023/06/23 02:58:11;;;;;;;0.50;0.50;;;19.10;99.90;;;;;;4403471;32;20117;-76
2023/06/23 03:00:37;;;;;;;0.30;0.30;;;19.10;99.90;;;;;;4405614;32;20517;-77
2023/06/23 03:03:09;;;;;;;0.45;0.43;;;19.00;99.90;;;;;;4404689;32;20192;-77
2023/06/23 03:05:35;;;;;;;0.93;0.82;;;19.00;99.90;;;;;;4398778;32;20091;-77
2023/06/23 03:08:01;;;;;;;0.20;0.20;;;18.90;99.90;;;;;;4404364;32;20538;-78
2023/06/23 03:10:30;;;;;;;0.35;0.35;;;18.90;99.90;;;;;;4402527;32;20111;-77
2023/06/23 03:13:04;;;;;;;0.50;0.50;;;18.90;99.90;;;;;;4403932;32;20160;-77
2023/06/23 03:15:31;;;;;;;0.32;0.32;;;18.90;99.90;;;;;;4404484;32;20467;-77
2023/06/23 03:18:02;;;;;;;2.05;1.05;;;18.90;99.90;;;;;;4403255;32;20420;-77
2023/06/23 03:20:35;;;;;;;0.40;0.40;;;19.00;99.90;;;;;;4402062;32;20081;-77
2023/06/23 03:23:04;;;;;;;0.30;0.30;;;18.90;99.90;;;;;;4405470;32;20058;-77
2023/06/23 03:25:30;;;;;;;0.62;0.50;;;18.90;99.90;;;;;;4407263;32;20078;-77
2023/06/23 03:28:01;;;;;;;0.35;0.35;;;18.90;99.90;;;;;;4403710;32;20062;-77
2023/06/23 03:30:39;;;;;;;0.50;0.50;;;18.90;99.90;;;;;;4405922;32;20093;-77
2023/06/23 03:33:12;;;;;;;0.40;0.40;;;18.90;99.90;;;;;;4406847;32;20507;-76
2023/06/23 03:35:41;;;;;;;0.47;0.47;;;18.90;99.90;;;;;;4403560;32;20065;-76
2023/06/23 03:38:10;;;;;;;0.65;0.62;;;18.80;99.90;;;;;;4404240;32;20145;-77
2023/06/23 03:40:45;;;;;;;1.15;0.85;;;18.90;99.90;;;;;;4403156;32;20071;-76
2023/06/23 03:43:19;;;;;;;0.30;0.30;;;18.90;99.90;;;;;;4406412;32;20069;-78
2023/06/23 03:45:52;;;;;;;0.77;0.55;;;18.80;99.90;;;;;;4406845;32;20065;-77
2023/06/23 03:48:19;;;;;;;1.02;0.40;;;18.90;99.90;;;;;;4408045;32;20102;-77
2023/06/23 03:50:49;;;;;;;0.50;0.50;;;18.80;99.90;;;;;;4404904;32;20099;-77
2023/06/23 03:53:17;;;;;;;0.50;0.50;;;18.80;99.90;;;;;;4405788;32;20062;-78
2023/06/23 03:55:43;;;;;;;0.45;0.43;;;18.80;99.90;;;;;;4407166;32;20078;-77
2023/06/23 03:58:13;;;;;;;0.60;0.60;;;18.80;99.90;;;;;;4407172;32;20085;-78
2023/06/23 04:00:41;;;;;;;0.73;0.73;;;18.80;99.90;;;;;;4407560;32;20070;-78
2023/06/23 04:03:09;;;;;;;1.10;0.57;;;18.80;99.90;;;;;;4407409;32;20074;-78
2023/06/23 04:05:37;;;;;;;0.40;0.40;;;18.80;99.90;;;;;;4405135;32;20070;-78
2023/06/23 04:08:04;;;;;;;0.40;0.40;;;18.80;99.90;;;;;;4406914;32;20082;-77
2023/06/23 04:10:31;;;;;;;0.40;0.40;;;18.80;99.90;;;;;;4407647;32;20094;-77
2023/06/23 04:12:59;;;;;;;0.20;0.20;;;18.90;99.90;;;;;;4410420;32;20541;-77
2023/06/23 04:15:37;;;;;;;0.50;0.50;;;19.00;99.90;;;;;;4407325;32;20079;-78
2023/06/23 04:18:05;;;;;;;0.43;0.40;;;19.00;99.90;;;;;;4408030;32;20085;-78
2023/06/23 04:20:44;;;;;;;0.93;0.70;;;19.00;99.90;;;;;;4407448;32;20066;-77
2023/06/23 04:23:13;;;;;;;0.62;0.62;;;19.00;99.90;;;;;;4407388;32;20058;-78
2023/06/23 04:25:39;;;;;;;1.42;0.77;;;19.00;99.90;;;;;;4405627;32;20142;-78
2023/06/23 04:28:11;;;;;;;3.75;1.42;;;18.90;99.90;;;;;;4407939;32;20651;-78
2023/06/23 04:30:38;;;;;;;1.42;0.57;;;19.00;99.90;;;;;;4407538;32;20121;-78
2023/06/23 04:33:04;;;;;;;0.85;0.47;;;18.90;99.90;;;;;;4408556;32;20089;-77
2023/06/23 04:35:30;;;;;;;0.68;0.68;;;18.80;99.90;;;;;;4406182;32;20459;-78
2023/06/23 04:38:03;;;;;;;0.47;0.47;;;18.90;99.90;;;;;;4406458;32;20062;-77
2023/06/23 04:40:40;;;;;;;2.37;1.17;;;19.00;99.90;;;;;;4406753;32;20075;-78
2023/06/23 04:43:18;;;;;;;0.30;0.30;;;19.10;99.90;;;;;;4409897;32;20501;-78
2023/06/23 04:45:52;;;;;;;0.52;0.43;;;19.00;99.90;;;;;;4406712;32;20078;-77
2023/06/23 04:48:24;;;;;;;0.20;0.20;;;19.00;99.90;;;;;;4406443;32;20062;-78
2023/06/23 04:50:54;;;;;;;0.45;0.45;;;19.10;99.90;;;;;;4394671;32;20074;-77
2023/06/23 04:53:27;;;;;;;2.90;1.50;;;19.20;99.90;;;;;;4406387;32;20074;-78
2023/06/23 04:56:00;;;;;;;0.50;0.50;;;19.20;99.90;;;;;;4405761;32;20454;-78
2023/06/23 04:58:37;;;;;;;2.35;0.70;;;19.20;99.90;;;;;;4409301;32;20062;-78
2023/06/23 05:01:04;;;;;;;0.50;0.50;;;19.30;99.90;;;;;;4405673;32;20058;-78
2023/06/23 05:03:32;;;;;;;0.40;0.40;;;19.20;99.90;;;;;;4407645;32;20085;-78
2023/06/23 05:06:00;;;;;;;0.40;0.40;;;19.20;99.90;;;;;;4407704;32;20078;-77
2023/06/23 05:08:28;;;;;;;1.02;0.95;;;19.10;99.90;;;;;;4407168;32;20082;-77
2023/06/23 05:10:59;;;;;;;0.45;0.45;;;19.20;99.90;;;;;;4407513;32;20082;-78
2023/06/23 05:13:32;;;;;;;0.82;0.82;;;19.20;99.90;;;;;;4407506;32;20058;-78
2023/06/23 05:16:00;;;;;;;0.60;0.57;;;19.30;99.90;;;;;;4407972;32;20066;-78
2023/06/23 05:18:28;;;;;;;0.65;0.57;;;19.30;99.90;;;;;;4401442;32;20070;-78
2023/06/23 05:20:56;;;;;;;0.50;0.50;;;19.30;99.90;;;;;;4404150;32;20136;-78
2023/06/23 05:23:23;;;;;;;0.70;0.70;;;19.20;99.90;;;;;;4404095;32;20077;-78
2023/06/23 05:25:57;;;;;;;0.57;0.50;;;19.10;99.90;;;;;;4405047;32;20170;-77
2023/06/23 05:28:26;;;;;;;0.35;0.35;;;19.10;99.90;;;;;;4400880;32;20065;-78
2023/06/23 05:30:56;;;;;;;4.00;0.73;;;19.10;99.90;;;;;;4396032;32;20109;-78
2023/06/23 05:33:33;;;;;;;2.67;0.68;;;19.20;99.90;;;;;;4401204;32;20101;-78
2023/06/23 05:36:09;;;;;;;0.37;0.30;;;19.20;99.90;;;;;;4402840;32;20078;-78
2023/06/23 05:38:36;;;;;;;0.40;0.40;;;19.20;99.90;;;;;;4404823;32;20256;-77
2023/06/23 05:41:04;;;;;;;0.60;0.57;;;19.20;99.90;;;;;;4398029;32;20101;-78
2023/06/23 05:43:31;;;;;;;0.57;0.57;;;19.20;99.90;;;;;;4398302;32;20066;-77
2023/06/23 05:45:58;;;;;;;0.90;0.70;;;19.30;99.90;;;;;;4405814;32;20133;-78
2023/06/23 05:48:36;;;;;;;1.80;0.62;;;19.30;99.90;;;;;;4393061;32;20206;-78
2023/06/23 05:51:07;;;;;;;1.00;0.50;;;19.20;99.90;;;;;;4397452;32;20461;-78
2023/06/23 05:53:36;;;;;;;0.50;0.50;;;19.30;99.90;;;;;;4401253;32;20082;-77
2023/06/23 05:56:14;;;;;;;0.60;0.60;;;19.20;99.90;;;;;;4400696;32;20244;-77
2023/06/23 05:58:44;;;;;;;0.43;0.43;;;19.30;99.90;;;;;;4393689;32;20109;-77
2023/06/23 06:01:14;;;;;;;;;;;19.30;99.90;;;;;;4393953;32;20699;-75
2023/06/23 06:03:45;;;;;;;1.65;1.15;;;19.30;99.90;;;;;;4399404;32;19941;-78
2023/06/23 06:06:11;;;;;;;0.30;0.30;;;19.30;99.90;;;;;;4396358;32;20077;-78
2023/06/23 06:08:38;;;;;;;10.77;0.98;;;19.20;99.90;;;;;;4380828;32;20077;-76
2023/06/23 06:11:05;;;;;;;0.73;0.60;;;19.30;99.90;;;;;;4382314;32;20066;-76
2023/06/23 06:13:35;;;;;;;0.68;0.65;;;19.30;99.90;;;;;;4381240;32;20134;-76
2023/06/23 06:16:03;;;;;;;0.68;0.68;;;19.30;99.90;;;;;;4382017;32;21310;-77
2023/06/23 06:18:31;;;;;;;1.05;0.95;;;19.40;99.90;;;;;;4381247;32;20801;-76
2023/06/23 06:20:59;;;;;;;0.73;0.62;;;19.40;99.90;;;;;;4386244;32;21095;-76
2023/06/23 06:23:25;;;;;;;0.73;0.62;;;19.40;99.90;;;;;;4374707;32;21807;-76
2023/06/23 06:25:53;;;;;;;0.70;0.70;;;19.40;99.90;;;;;;4381771;32;20546;-75
2023/06/23 06:28:21;;;;;;;0.50;0.50;;;19.40;99.90;;;;;;4385988;32;20094;-75
2023/06/23 06:30:48;;;;;;;0.80;0.77;;;19.50;99.90;;;;;;4374137;32;20699;-76
2023/06/23 06:33:14;;;;;;;0.50;0.50;;;19.50;99.90;;;;;;4375697;32;20901;-76
2023/06/23 06:35:42;;;;;;;0.60;0.60;;;19.50;99.90;;;;;;4380744;32;20696;-76
2023/06/23 06:38:10;;;;;;;0.47;0.47;;;19.50;99.90;;;;;;4378268;32;20109;-75
2023/06/23 06:40:37;;;;;;;0.60;0.60;;;19.50;99.90;;;;;;4384419;32;20109;-76
2023/06/23 06:43:03;;;;;;;1.50;0.68;;;19.40;99.90;;;;;;4384306;32;20513;-77
2023/06/23 06:45:28;;;;;;;0.50;0.50;;;19.50;99.90;;;;;;4380169;32;20099;-75
2023/06/23 06:47:57;;;;;;;1.45;1.08;;;19.50;99.90;;;;;;4387196;32;20121;-76
2023/06/23 06:50:23;;;;;;;0.30;0.30;;;19.60;99.90;;;;;;4385145;32;20114;-75
2023/06/23 06:52:49;;;;;;;0.40;0.40;;;19.70;99.90;;;;;;4381630;32;20145;-76
2023/06/23 06:55:18;;;;;;;0.88;0.80;;;19.70;99.90;;;;;;4372428;32;20806;-76
2023/06/23 06:57:45;;;;;;;0.43;0.43;;;19.60;99.90;;;;;;4380633;32;20162;-77
2023/06/23 07:00:13;;;;;;;0.50;0.50;;;19.60;99.90;;;;;;4381629;32;20061;-76
2023/06/23 07:02:41;;;;;;;3.12;0.90;;;19.60;99.90;;;;;;4383747;32;20164;-76
2023/06/23 07:05:08;;;;;;;7.97;0.60;;;19.60;99.90;;;;;;4384156;32;20115;-76
2023/06/23 07:07:34;;;;;;;3.58;1.60;;;19.60;99.90;;;;;;4375613;32;20157;-79
2023/06/23 07:10:03;;;;;;;0.45;0.45;;;19.70;99.90;;;;;;4388232;32;20361;-78
2023/06/23 07:12:30;;;;;;;1.08;0.82;;;19.80;99.90;;;;;;4390011;32;20581;-79
2023/06/23 07:14:55;;;;;;;0.52;0.50;;;19.80;99.90;;;;;;4385721;32;20153;-79
2023/06/23 07:17:22;;;;;;;0.47;0.47;;;19.80;99.90;;;;;;4401959;32;20081;-75
2023/06/23 07:19:48;;;;;;;2.10;0.77;;;19.90;99.90;;;;;;4408880;32;20196;-78
2023/06/23 07:22:14;;;;;;;2.35;0.52;;;20.00;99.90;;;;;;4403813;32;20175;-77
2023/06/23 07:24:40;;;;;;;6.22;1.85;;;20.00;99.90;;;;;;4393947;32;20675;-76
2023/06/23 07:27:06;;;;;;;0.52;0.52;;;20.00;99.90;;;;;;4391307;32;20153;-78
2023/06/23 07:29:32;;;;;;;0.88;0.80;;;19.90;99.90;;;;;;4392745;32;20089;-77
2023/06/23 07:31:58;;;;;;;1.02;0.70;;;19.90;99.90;;;;;;4390605;32;20097;-77
2023/06/23 07:34:24;;;;;;;0.88;0.82;;;19.80;99.90;;;;;;4384048;32;20423;-76
2023/06/23 07:36:51;;;;;;;10.80;1.02;;;19.80;99.90;;;;;;4385010;32;20605;-76
2023/06/23 07:39:21;;;;;;;0.65;0.65;;;19.80;99.90;;;;;;4385381;32;20069;-79
2023/06/23 07:41:46;;;;;;;0.70;0.68;;;19.80;99.90;;;;;;4381247;32;20097;-77
2023/06/23 07:44:12;;;;;;;0.70;0.70;;;19.80;99.90;;;;;;4383442;32;20418;-76
2023/06/23 07:46:37;;;;;;;13.25;0.90;;;19.80;99.90;;;;;;4387264;32;20133;-75
2023/06/23 07:49:03;;;;;;;1.20;0.70;;;19.70;99.90;;;;;;4373728;32;20119;-76
2023/06/23 07:51:28;;;;;;;0.47;0.47;;;19.80;99.90;;;;;;4377512;32;20157;-76
2023/06/23 07:53:55;;;;;;;0.73;0.60;;;19.80;99.90;;;;;;4388137;32;20169;-76
2023/06/23 07:56:20;;;;;;;2.00;0.70;;;19.80;99.90;;;;;;4376530;32;20716;-76
2023/06/23 07:58:46;;;;;;;1.27;1.08;;;19.90;99.90;;;;;;4371865;32;20093;-76
2023/06/23 08:01:12;;;;;;;1.17;0.68;;;19.90;99.90;;;;;;4374109;32;21463;-75
2023/06/23 08:03:38;;;;;;;1.75;1.23;;;19.90;99.90;;;;;;4366544;32;21826;-75
2023/06/23 08:06:03;;;;;;;1.25;0.88;;;19.80;99.90;;;;;;4377944;32;20143;-76
2023/06/23 08:08:29;;;;;;;1.52;0.95;;;19.80;99.90;;;;;;4382735;32;20150;-75
2023/06/23 08:10:54;;;;;;;1.00;0.65;;;19.80;99.90;;;;;;4387976;32;20144;-75
2023/06/23 08:13:20;;;;;;;1.25;0.60;;;19.80;99.90;;;;;;4388606;32;20110;-75
2023/06/23 08:15:46;;;;;;;1.75;0.70;;;19.80;99.90;;;;;;4379332;32;20123;-75
2023/06/23 08:18:12;;;;;;;2.60;1.15;;;19.90;99.90;;;;;;4371701;32;20589;-77
2023/06/23 08:20:38;;;;;;;2.65;0.98;;;19.80;99.90;;;;;;4381301;32;20417;-76
2023/06/23 08:23:03;;;;;;;0.80;0.80;;;19.90;99.90;;;;;;4384140;32;20090;-76
2023/06/23 08:25:29;;;;;;;0.62;0.55;;;19.80;99.90;;;;;;4379585;32;20140;-77
2023/06/23 08:27:54;;;;;;;1.17;0.60;;;19.80;99.90;;;;;;4385471;32;20066;-77
2023/06/23 08:30:30;;;;;;;0.68;0.68;;;19.80;99.90;;;;;;4384341;32;20187;-76
2023/06/23 08:32:57;;;;;;;2.25;0.60;;;19.80;99.90;;;;;;4381448;32;20188;-76
2023/06/23 08:35:23;;;;;;;0.40;0.40;;;19.70;99.90;;;;;;4386662;32;20106;-76
2023/06/23 08:37:48;;;;;;;0.50;0.50;;;19.70;99.90;;;;;;4381949;32;20205;-75
2023/06/23 08:40:14;;;;;;;0.62;0.47;;;19.70;99.90;;;;;;4381684;32;20539;-75
2023/06/23 08:42:40;;;;;;;0.57;0.57;;;19.70;99.90;;;;;;4373922;32;20129;-76
2023/06/23 08:45:07;;;;;;;1.70;0.80;;;19.60;99.90;;;;;;4372719;32;20093;-76
2023/06/23 08:47:36;;;;;;;0.52;0.50;;;19.60;99.90;;;;;;4373424;32;20575;-76
2023/06/23 08:50:02;;;;;;;0.43;0.40;;;19.70;99.90;;;;;;4383230;32;20170;-77
2023/06/23 08:52:28;;;;;;;0.50;0.50;;;19.60;99.90;;;;;;4386584;32;20082;-76
2023/06/23 08:54:53;;;;;;;0.50;0.50;;;19.60;99.90;;;;;;4384396;32;20126;-76
2023/06/23 08:57:19;;;;;;;0.55;0.45;;;19.60;99.90;;;;;;4377352;32;20451;-76
2023/06/23 08:59:45;;;;;;;0.82;0.68;;;19.60;99.90;;;;;;4384727;32;20136;-77
2023/06/23 09:02:11;;;;;;;6.93;0.80;;;19.60;99.90;;;;;;4387864;32;20590;-77
2023/06/23 09:04:38;;;;;;;0.77;0.77;;;19.50;99.90;;;;;;4384031;32;20082;-76
2023/06/23 09:07:04;;;;;;;1.27;1.15;;;19.50;99.90;;;;;;4387509;32;20372;-76
2023/06/23 09:09:30;;;;;;;0.75;0.73;;;19.50;99.90;;;;;;4385279;32;20482;-76
2023/06/23 09:11:56;;;;;;;1.05;0.68;;;19.40;99.90;;;;;;4387512;32;20128;-76
2023/06/23 09:14:29;;;;;;;1.05;0.80;;;19.40;99.90;;;;;;4387538;32;20094;-77
2023/06/23 09:16:55;;;;;;;0.32;0.32;;;19.40;99.90;;;;;;4382809;32;20447;-77
2023/06/23 09:19:22;;;;;;;5.40;0.88;;;19.40;99.90;;;;;;4389662;32;20173;-76
2023/06/23 09:21:47;;;;;;;0.50;0.50;;;19.50;99.90;;;;;;4390394;32;20707;-75
2023/06/23 09:24:13;;;;;;;0.45;0.45;;;19.40;99.90;;;;;;4386917;32;20140;-77
2023/06/23 09:26:51;;;;;;;0.80;0.62;;;19.40;99.90;;;;;;4382537;32;20097;-76
2023/06/23 09:29:22;;;;;;;0.55;0.50;;;19.40;99.90;;;;;;4385184;32;20155;-77
2023/06/23 09:31:48;;;;;;;;;;;19.50;99.90;;;;;;4379761;32;20976;-76
2023/06/23 09:34:34;;;;;;;0.77;0.57;;;19.50;99.90;;;;;;4375874;32;19950;-76
2023/06/23 09:37:09;;;;;;;0.70;0.70;;;19.50;99.90;;;;;;4372062;32;20529;-75
2023/06/23 09:39:37;;;;;;;0.65;0.62;;;19.50;99.90;;;;;;4383905;32;20375;-74
2023/06/23 09:42:05;;;;;;;0.43;0.40;;;19.50;99.90;;;;;;4385967;32;20118;-75
2023/06/23 09:44:41;;;;;;;0.55;0.55;;;19.50;99.90;;;;;;4388426;32;20419;-76
2023/06/23 09:47:07;;;;;;;0.32;0.32;;;19.60;99.90;;;;;;4396223;32;20127;-75
2023/06/23 09:49:42;;;;;;;0.47;0.47;;;19.50;99.90;;;;;;4398141;32;20548;-75
2023/06/23 09:52:08;;;;;;;0.88;0.60;;;19.40;99.90;;;;;;4388627;32;20105;-74
2023/06/23 09:54:36;;;;;;;0.82;0.82;;;19.40;99.90;;;;;;4384759;32;20707;-75
2023/06/23 09:57:05;;;;;;;0.75;0.57;;;19.40;99.90;;;;;;4393705;32;20069;-77
2023/06/23 09:59:31;;;;;;;1.00;0.75;;;19.50;99.90;;;;;;4406524;32;20053;-77
2023/06/23 10:01:57;;;;;;;0.50;0.50;;;19.40;99.90;;;;;;4403900;32;20144;-76
2023/06/23 10:04:30;;;;;;;0.98;0.70;;;19.50;99.90;;;;;;4397379;32;20081;-76
2023/06/23 10:06:57;;;;;;;0.50;0.50;;;19.50;99.90;;;;;;4393809;32;20118;-77
2023/06/23 10:09:24;;;;;;;0.50;0.50;;;19.50;99.90;;;;;;4397541;32;20085;-76
2023/06/23 10:11:51;;;;;;;1.48;0.75;;;19.40;99.90;;;;;;4395829;32;20170;-76
2023/06/23 10:14:18;;;;;;;0.70;0.52;;;19.30;99.90;;;;;;4404672;32;20085;-77
2023/06/23 10:16:44;;;;;;;1.30;1.20;;;19.30;99.90;;;;;;4390697;32;20546;-78
2023/06/23 10:19:12;;;;;;;0.75;0.73;;;19.30;99.90;;;;;;4391580;32;20089;-77
2023/06/23 10:21:39;;;;;;;1.37;0.95;;;19.30;99.90;;;;;;4383370;32;20125;-76
2023/06/23 10:24:12;;;;;;;1.45;0.73;;;19.30;99.90;;;;;;4391453;32;20145;-77
2023/06/23 10:26:42;;;;;;;4.20;1.17;;;19.20;99.90;;;;;;4393488;32;20499;-78
2023/06/23 10:29:13;;;;;;;0.80;0.40;;;19.20;99.90;;;;;;4390649;32;20128;-78
2023/06/23 10:31:41;;;;;;;0.52;0.52;;;19.20;99.90;;;;;;4396272;32;20186;-78
2023/06/23 10:34:12;;;;;;;0.55;0.55;;;19.20;99.90;;;;;;4394324;32;21275;-78
2023/06/23 10:36:42;;;;;;;0.70;0.70;;;19.20;99.90;;;;;;4394599;32;20093;-79
2023/06/23 10:39:10;;;;;;;0.68;0.68;;;19.10;99.90;;;;;;4390559;32;20403;-78
2023/06/23 10:41:38;;;;;;;0.50;0.50;;;19.10;99.90;;;;;;4389877;32;20141;-78
2023/06/23 10:44:04;;;;;;;1.08;0.65;;;19.00;99.90;;;;;;4391361;32;20085;-79
2023/06/23 10:46:30;;;;;;;0.80;0.40;;;19.00;99.90;;;;;;4384527;32;20170;-79
2023/06/23 10:48:57;;;;;;;1.23;1.00;;;19.10;99.90;;;;;;4386761;32;20089;-79
2023/06/23 10:51:24;;;;;;;0.73;0.60;;;19.10;99.90;;;;;;4382730;32;20156;-79
2023/06/23 10:53:58;;;;;;;0.60;0.60;;;19.10;99.90;;;;;;4395413;32;20371;-78
2023/06/23 10:56:42;;;;;;;0.93;0.73;;;19.10;99.90;;;;;;4395838;32;20083;-79
2023/06/23 10:59:25;;;;;;;1.08;0.70;;;19.10;99.90;;;;;;4395036;32;20135;-78
2023/06/23 11:02:08;;;;;;;0.60;0.60;;;19.10;99.90;;;;;;4397073;32;20082;-77
2023/06/23 11:04:41;;;;;;;3.62;0.70;;;19.10;99.90;;;;;;4393579;32;20111;-79
2023/06/23 11:07:12;;;;;;;0.52;0.52;;;19.20;99.90;;;;;;4398988;32;20269;-78
2023/06/23 11:09:45;;;;;;;0.70;0.70;;;19.20;99.90;;;;;;4399480;32;20101;-78
2023/06/23 11:12:39;;;;;;;0.62;0.62;;;19.20;99.90;;;;;;4399490;32;20094;-78
2023/06/23 11:15:15;;;;;;;0.73;0.52;;;19.30;99.90;;;;;;4379154;32;20492;-75
2023/06/23 11:17:46;;;;;;;1.02;0.55;;;19.40;99.90;;;;;;4390111;32;20116;-76
2023/06/23 11:20:29;;;;;;;0.65;0.60;;;19.40;99.90;;;;;;4394259;32;20090;-74
2023/06/23 11:23:01;;;;;;;0.52;0.50;;;19.40;99.90;;;;;;4370563;32;20141;-75
2023/06/23 11:25:29;;;;;;;1.35;0.73;;;19.40;99.90;;;;;;4394193;32;20141;-76
2023/06/23 11:28:34;;;;;;;0.40;0.40;;;19.40;99.90;;;;;;4375170;32;20187;-76
2023/06/23 11:31:26;;;;;;;0.40;0.40;;;19.30;99.90;;;;;;4363681;32;20118;-77
2023/06/23 11:33:58;;;;;;;0.40;0.40;;;19.30;99.90;;;;;;4376937;32;20125;-79
2023/06/23 11:36:26;;;;;;;2.15;0.60;;;19.30;99.90;;;;;;4377658;32;20302;-77
2023/06/23 11:38:53;;;;;;;0.30;0.30;;;19.30;99.90;;;;;;4385997;32;20081;-77
2023/06/23 11:41:34;;;;;;;0.52;0.50;;;19.30;99.90;;;;;;4383859;32;20094;-77
2023/06/23 11:44:02;;;;;;;0.40;0.40;;;19.30;99.90;;;;;;4388369;32;20117;-77
2023/06/23 11:46:31;;;;;;;0.25;0.25;;;19.20;99.90;;;;;;4387355;32;88335;-77
2023/06/23 11:48:56;;;;;;;1.35;0.60;;;19.30;99.90;;;;;;4388358;32;20646;-77
2023/06/23 11:51:22;;;;;;;0.47;0.47;;;19.20;99.90;;;;;;4389365;32;20090;-76
2023/06/23 11:53:51;;;;;;;0.50;0.50;;;19.20;99.90;;;;;;4389078;32;20067;-76
2023/06/23 11:56:18;;;;;;;0.40;0.40;;;19.10;99.90;;;;;;4392243;32;20502;-77
2023/06/23 11:58:50;;;;;;;1.35;0.57;;;19.10;99.90;;;;;;4396187;32;20192;-76
2023/06/23 12:01:17;;;;;;;1.83;0.60;;;19.10;99.90;;;;;;4394796;32;20113;-77
2023/06/23 12:03:58;;;;;;;0.60;0.60;;;19.10;99.90;;;;;;4392737;32;20261;-78
2023/06/23 12:06:24;;;;;;;;;;;19.10;99.90;;;;;;4394250;32;20210;-77
2023/06/23 12:08:50;;;;;;;2.05;0.62;;;19.00;99.90;;;;;;4388556;32;20010;-76
2023/06/23 12:11:18;;;;;;;1.05;0.50;;;19.00;99.90;;;;;;4392580;32;20097;-77
2023/06/23 12:13:45;;;;;;;3.20;0.73;;;19.00;99.90;;;;;;4393916;32;20061;-77
2023/06/23 12:16:11;;;;;;;0.40;0.40;;;19.00;99.90;;;;;;4393623;32;20102;-77
2023/06/23 12:18:52;;;;;;;1.87;0.70;;;19.00;99.90;;;;;;4388055;32;20135;-77
2023/06/23 12:21:19;;;;;;;;;;;19.00;99.90;;;;;;4377417;32;20502;-77
2023/06/23 12:23:45;;;;;;;0.60;0.52;;;18.90;99.90;;;;;;4392775;32;20002;-77
2023/06/23 12:26:12;;;;;;;0.45;0.45;;;19.00;99.90;;;;;;4393595;32;20096;-77
2023/06/23 12:28:37;;;;;;;0.30;0.30;;;19.10;99.90;;;;;;4391741;32;20114;-78
2023/06/23 12:31:04;;;;;;;0.40;0.40;;;19.10;99.90;;;;;;4395903;32;21110;-77
2023/06/23 12:33:32;;;;;;;1.52;0.85;;;19.10;99.90;;;;;;4397101;32;20180;-78
2023/06/23 12:36:00;;;;;;;0.50;0.50;;;19.20;99.90;;;;;;4398101;32;20904;-78
2023/06/23 12:38:26;;;;;;;1.35;0.65;;;19.00;99.90;;;;;;4398565;32;20160;-80
2023/06/23 12:40:51;;;;;;;0.70;0.50;;;18.90;99.90;;;;;;4393567;32;20095;-78
2023/06/23 12:43:18;;;;;;;1.05;1.02;;;18.80;99.90;;;;;;4396159;32;20141;-79
2023/06/23 12:45:47;;;;;;;0.30;0.30;;;18.80;99.90;;;;;;4400091;32;20096;-79
2023/06/23 12:48:13;;;;;;;2.17;0.60;;;18.60;99.90;;;;;;4399561;32;20089;-79
2023/06/23 12:50:41;;;;;;;0.40;0.40;;;18.40;99.90;;;;;;4402928;32;20562;-79
2023/06/23 12:53:07;;;;;;;0.60;0.60;;;18.50;99.90;;;;;;4401197;32;20149;-78
2023/06/23 12:55:33;;;;;;;0.40;0.40;;;18.50;99.90;;;;;;4402179;32;20546;-78
2023/06/23 12:57:59;;;;;;;0.50;0.45;;;18.40;99.90;;;;;;4399850;32;20123;-77
2023/06/23 13:00:25;;;;;;;0.73;0.40;;;18.40;99.90;;;;;;4399563;32;20085;-76